Sault Sainte Marie, MI

1:56 PM EDT on July 06, 2015 (GMT -0400)
Sault Ste Marie Municipal / Sanderson Field | | Change Station
CLOSE
Current Station
Airport
Location: Sault Ste Marie,
Elevation: 715 ft
Nearby Weather Stations

Elev 715 ft 46.48 °N, 84.36 °W | Updated 1 hour ago

Scattered Clouds
Scattered Clouds
78 °F
Feels Like 78 °F
N
13
Wind Variable Wind from South

Today
High -- | Low -- °F
--% Chance of Precip.
Yesterday
High -- | Low -- °F
Precip. -- in
5:51 AM 9:32 PM
Waning Gibbous, 73% visible
Pressure 29.89 in
Visibility 8.0 miles
Clouds Scattered Clouds 3000 ft
Scattered Clouds 3900 ft
Dew Point 64 °F
Humidity 62%
Rainfall 0.00 in
Snow Depth Not available.
UV 8 out of 12
Pollen 5.00 out of 12
Air Quality Not available.
Flu Activity Not available.
METAR KANJ 061655Z AUTO 19011KT 8SM SCT030 SCT039 26/18 A2990 RMK AO2 SLP122 T02560178

More Conditions Fewer Conditions

Pressure 29.89 in
Visibility 8.0 miles
Clouds Scattered Clouds 3000 ft
Scattered Clouds 3900 ft
Dew Point 64 °F
Humidity 62%
Rainfall 0.00 in
Snow Depth Not available.
UV 8 out of 12
Pollen 5.00 out of 12
Air Quality Not available.
Flu Activity Not available.
METAR KANJ 061655Z AUTO 19011KT 8SM SCT030 SCT039 26/18 A2990 RMK AO2 SLP122 T02560178

More Conditions Fewer Conditions

Nowcast | as of 1:00 PM EDT on July 6, 2015

At 2 PM...partly cloudy. Temperature 80. South winds 14 mph. At 4 PM...partly cloudy. Temperature 81. South winds 16 mph. At 6 PM...mostly cloudy. Temperature 80. South winds 16 mph. At 8 PM...mostly cloudy. Slight chance of thunderstorms. Temperature 75. South winds 14 mph.

×

10-Day Weather Forecast

×

Almanac

Astronomy

Jul. 06, 2015 Rise Set
Actual Time
Civil Twilight
Nautical Twilight
Astronomical Twilight
Moon
Length of Visible Light
Length of Day
Tomorrow will be .
, % of the Moon is Illuminated

Today's Extremes

State Highs State Lows

Community

WunderPhotos

Upload Photos

1,835,607 photos uploaded!

WunderBlogs® & News

Nearby

Air Quality

  Air Quality AQ Index Pollutant
Not available.

Snow Depth

Station Depth Elevation

Earthquake Activity

City Distance Mag. Time & Date
Minimum magnitude displayed is 2.5.

Coastal Water Temperatures

Place Temperature

Stations

Nearby Weather Stations

Station Location Temp. Windchill Dew Point Humidity Wind Precip. Elev Updated Type